sensor_id;sensor_type;location;lat;lon;timestamp;pressure;altitude;pressure_sealevel;temperature;humidity
63739;BME280;68816;45.558;10.070;2023-04-07T00:00:38;99963.47;;;11.26;41.40
63739;BME280;68816;45.558;10.070;2023-04-07T00:03:04;99959.28;;;11.24;40.98
63739;BME280;68816;45.558;10.070;2023-04-07T00:05:32;99970.69;;;11.16;41.26
63739;BME280;68816;45.558;10.070;2023-04-07T00:07:57;99963.25;;;11.16;40.78
63739;BME280;68816;45.558;10.070;2023-04-07T00:10:23;99960.22;;;11.18;40.71
63739;BME280;68816;45.558;10.070;2023-04-07T00:12:49;99956.25;;;11.13;40.78
63739;BME280;68816;45.558;10.070;2023-04-07T00:15:14;99963.97;;;11.11;41.13
63739;BME280;68816;45.558;10.070;2023-04-07T00:17:40;99972.97;;;10.95;40.91
63739;BME280;68816;45.558;10.070;2023-04-07T00:20:06;99971.16;;;11.01;42.22
63739;BME280;68816;45.558;10.070;2023-04-07T00:22:32;99967.22;;;10.85;41.13
63739;BME280;68816;45.558;10.070;2023-04-07T00:24:57;99966.84;;;10.93;41.83
63739;BME280;68816;45.558;10.070;2023-04-07T00:27:23;99964.66;;;10.84;41.58
63739;BME280;68816;45.558;10.070;2023-04-07T00:29:48;99970.34;;;10.77;42.31
63739;BME280;68816;45.558;10.070;2023-04-07T00:32:14;99967.19;;;10.62;42.08
63739;BME280;68816;45.558;10.070;2023-04-07T00:34:39;99961.75;;;10.55;43.18
63739;BME280;68816;45.558;10.070;2023-04-07T00:37:05;99963.06;;;10.29;43.92
63739;BME280;68816;45.558;10.070;2023-04-07T00:39:31;99965.84;;;10.41;44.01
63739;BME280;68816;45.558;10.070;2023-04-07T00:41:57;99955.94;;;10.22;45.42
63739;BME280;68816;45.558;10.070;2023-04-07T00:44:22;99962.44;;;10.27;44.68
63739;BME280;68816;45.558;10.070;2023-04-07T00:46:48;99958.28;;;10.07;44.27
63739;BME280;68816;45.558;10.070;2023-04-07T00:49:14;99954.53;;;10.01;44.61
63739;BME280;68816;45.558;10.070;2023-04-07T00:51:42;99944.63;;;9.94;44.25
63739;BME280;68816;45.558;10.070;2023-04-07T00:54:08;99946.19;;;9.89;44.05
63739;BME280;68816;45.558;10.070;2023-04-07T00:56:34;99948.13;;;9.89;46.11
63739;BME280;68816;45.558;10.070;2023-04-07T00:59:00;99951.31;;;9.86;45.05
63739;BME280;68816;45.558;10.070;2023-04-07T01:01:30;99941.25;;;9.92;45.30
63739;BME280;68816;45.558;10.070;2023-04-07T01:04:04;99944.59;;;9.82;45.43
63739;BME280;68816;45.558;10.070;2023-04-07T01:06:36;99950.97;;;9.82;44.72
63739;BME280;68816;45.558;10.070;2023-04-07T01:09:50;99956.72;;;9.81;44.69
63739;BME280;68816;45.558;10.070;2023-04-07T01:15:04;99969.31;;;9.77;44.82
63739;BME280;68816;45.558;10.070;2023-04-07T01:17:33;99964.44;;;9.61;45.19
63739;BME280;68816;45.558;10.070;2023-04-07T01:20:04;99957.59;;;9.63;45.12
63739;BME280;68816;45.558;10.070;2023-04-07T01:22:37;99967.47;;;9.71;44.27
63739;BME280;68816;45.558;10.070;2023-04-07T01:28:14;99963.66;;;9.54;44.74
63739;BME280;68816;45.558;10.070;2023-04-07T01:30:48;99960.91;;;9.54;44.61
63739;BME280;68816;45.558;10.070;2023-04-07T01:33:15;99962.28;;;9.44;44.37
63739;BME280;68816;45.558;10.070;2023-04-07T01:35:42;99960.28;;;9.52;43.53
63739;BME280;68816;45.558;10.070;2023-04-07T01:38:08;99959.59;;;9.38;44.27
63739;BME280;68816;45.558;10.070;2023-04-07T01:40:36;99948.88;;;9.30;44.27
63739;BME280;68816;45.558;10.070;2023-04-07T01:43:03;99957.75;;;9.32;43.86
63739;BME280;68816;45.558;10.070;2023-04-07T01:45:30;99955.84;;;9.32;44.10
63739;BME280;68816;45.558;10.070;2023-04-07T01:47:59;99958.16;;;9.17;43.34
63739;BME280;68816;45.558;10.070;2023-04-07T01:50:25;99950.34;;;9.14;43.86
63739;BME280;68816;45.558;10.070;2023-04-07T01:52:51;99960.06;;;9.17;44.55
63739;BME280;68816;45.558;10.070;2023-04-07T01:55:17;99949.72;;;9.12;43.91
63739;BME280;68816;45.558;10.070;2023-04-07T01:57:43;99950.47;;;9.01;43.98
63739;BME280;68816;45.558;10.070;2023-04-07T02:00:09;99946.19;;;9.05;44.72
63739;BME280;68816;45.558;10.070;2023-04-07T02:02:40;99941.53;;;9.05;44.78
63739;BME280;68816;45.558;10.070;2023-04-07T02:05:08;99941.59;;;8.99;44.47
63739;BME280;68816;45.558;10.070;2023-04-07T02:08:11;99943.00;;;9.08;44.86
63739;BME280;68816;45.558;10.070;2023-04-07T02:10:37;99942.00;;;9.02;46.08
63739;BME280;68816;45.558;10.070;2023-04-07T02:13:05;99944.94;;;8.83;45.60
63739;BME280;68816;45.558;10.070;2023-04-07T02:15:32;99947.41;;;8.91;45.62
63739;BME280;68816;45.558;10.070;2023-04-07T02:17:59;99941.44;;;8.94;45.00
63739;BME280;68816;45.558;10.070;2023-04-07T02:20:27;99941.72;;;8.86;44.79
63739;BME280;68816;45.558;10.070;2023-04-07T02:22:53;99944.94;;;8.83;44.98
63739;BME280;68816;45.558;10.070;2023-04-07T02:25:28;99947.41;;;8.91;45.00
63739;BME280;68816;45.558;10.070;2023-04-07T02:27:55;99949.13;;;8.85;44.96
63739;BME280;68816;45.558;10.070;2023-04-07T02:30:21;99938.22;;;8.79;45.19
63739;BME280;68816;45.558;10.070;2023-04-07T02:32:47;99940.50;;;8.82;44.65
63739;BME280;68816;45.558;10.070;2023-04-07T02:35:14;99939.50;;;8.76;45.25
63739;BME280;68816;45.558;10.070;2023-04-07T02:37:40;99941.72;;;8.68;45.69
63739;BME280;68816;45.558;10.070;2023-04-07T02:40:06;99934.56;;;8.60;45.40
63739;BME280;68816;45.558;10.070;2023-04-07T02:42:32;99943.91;;;8.59;46.02
63739;BME280;68816;45.558;10.070;2023-04-07T02:44:57;99952.22;;;8.52;45.80
63739;BME280;68816;45.558;10.070;2023-04-07T02:47:23;99942.84;;;8.60;45.70
63739;BME280;68816;45.558;10.070;2023-04-07T02:49:49;99949.47;;;8.52;45.57
63739;BME280;68816;45.558;10.070;2023-04-07T02:52:14;99948.78;;;8.57;46.63
63739;BME280;68816;45.558;10.070;2023-04-07T02:54:40;99947.72;;;8.58;46.46
63739;BME280;68816;45.558;10.070;2023-04-07T02:57:05;99942.09;;;8.46;45.56
63739;BME280;68816;45.558;10.070;2023-04-07T02:59:31;99941.34;;;8.57;45.77
63739;BME280;68816;45.558;10.070;2023-04-07T03:01:56;99940.13;;;8.53;46.70
63739;BME280;68816;45.558;10.070;2023-04-07T03:04:22;99941.41;;;8.51;45.21
63739;BME280;68816;45.558;10.070;2023-04-07T03:06:47;99940.50;;;8.57;45.56
63739;BME280;68816;45.558;10.070;2023-04-07T03:09:13;99924.34;;;8.42;45.60
63739;BME280;68816;45.558;10.070;2023-04-07T03:11:39;99930.47;;;8.44;46.52
63739;BME280;68816;45.558;10.070;2023-04-07T03:14:05;99929.06;;;8.35;46.65
63739;BME280;68816;45.558;10.070;2023-04-07T03:16:31;99940.41;;;8.45;44.80
63739;BME280;68816;45.558;10.070;2023-04-07T03:18:56;99938.31;;;8.41;45.24
63739;BME280;68816;45.558;10.070;2023-04-07T03:21:22;99939.34;;;8.46;45.69
63739;BME280;68816;45.558;10.070;2023-04-07T03:23:47;99921.66;;;8.29;45.61
63739;BME280;68816;45.558;10.070;2023-04-07T03:26:13;99927.22;;;8.22;45.73
63739;BME280;68816;45.558;10.070;2023-04-07T03:28:38;99930.97;;;8.28;45.71
63739;BME280;68816;45.558;10.070;2023-04-07T03:31:03;99933.72;;;8.28;45.64
63739;BME280;68816;45.558;10.070;2023-04-07T03:33:29;99933.94;;;8.33;45.56
63739;BME280;68816;45.558;10.070;2023-04-07T03:35:55;99937.53;;;8.27;46.34
63739;BME280;68816;45.558;10.070;2023-04-07T03:38:20;99936.94;;;8.25;46.72
63739;BME280;68816;45.558;10.070;2023-04-07T03:40:46;99937.22;;;8.17;46.33
63739;BME280;68816;45.558;10.070;2023-04-07T03:43:11;99944.66;;;8.10;46.80
63739;BME280;68816;45.558;10.070;2023-04-07T03:45:40;99945.22;;;8.25;45.82
63739;BME280;68816;45.558;10.070;2023-04-07T03:48:06;99951.09;;;8.35;45.05
63739;BME280;68816;45.558;10.070;2023-04-07T03:50:34;99957.28;;;8.24;46.17
63739;BME280;68816;45.558;10.070;2023-04-07T03:53:00;99966.19;;;8.26;45.72
63739;BME280;68816;45.558;10.070;2023-04-07T03:55:26;99960.25;;;8.22;46.88
63739;BME280;68816;45.558;10.070;2023-04-07T03:57:51;99949.53;;;8.14;47.84
63739;BME280;68816;45.558;10.070;2023-04-07T04:00:17;99946.38;;;8.11;47.84
63739;BME280;68816;45.558;10.070;2023-04-07T04:02:42;99947.25;;;8.05;47.59
63739;BME280;68816;45.558;10.070;2023-04-07T04:05:08;99945.56;;;8.04;48.32
63739;BME280;68816;45.558;10.070;2023-04-07T04:07:33;99948.19;;;7.92;48.35
63739;BME280;68816;45.558;10.070;2023-04-07T04:10:00;99946.75;;;7.83;48.16
63739;BME280;68816;45.558;10.070;2023-04-07T04:12:25;99949.31;;;7.84;48.33
63739;BME280;68816;45.558;10.070;2023-04-07T04:14:51;99945.22;;;7.94;47.74
63739;BME280;68816;45.558;10.070;2023-04-07T04:17:17;99942.63;;;7.99;48.33
63739;BME280;68816;45.558;10.070;2023-04-07T04:19:42;99945.97;;;8.07;48.49
63739;BME280;68816;45.558;10.070;2023-04-07T04:22:08;99940.34;;;7.96;48.95
63739;BME280;68816;45.558;10.070;2023-04-07T04:24:33;99936.84;;;7.75;49.37
63739;BME280;68816;45.558;10.070;2023-04-07T04:26:59;99936.81;;;7.82;50.19
63739;BME280;68816;45.558;10.070;2023-04-07T04:29:26;99931.28;;;7.89;49.42
63739;BME280;68816;45.558;10.070;2023-04-07T04:31:51;99934.91;;;7.82;50.57
63739;BME280;68816;45.558;10.070;2023-04-07T04:34:16;99931.88;;;7.97;49.68
63739;BME280;68816;45.558;10.070;2023-04-07T04:36:42;99931.38;;;8.07;49.98
63739;BME280;68816;45.558;10.070;2023-04-07T04:39:07;99930.50;;;8.06;50.51
63739;BME280;68816;45.558;10.070;2023-04-07T04:41:33;99927.81;;;8.00;50.66
63739;BME280;68816;45.558;10.070;2023-04-07T04:43:58;99931.41;;;8.00;49.93
63739;BME280;68816;45.558;10.070;2023-04-07T04:46:24;99928.09;;;7.92;49.37
63739;BME280;68816;45.558;10.070;2023-04-07T04:48:50;99930.47;;;7.81;49.34
63739;BME280;68816;45.558;10.070;2023-04-07T04:51:18;99922.91;;;7.70;49.47
63739;BME280;68816;45.558;10.070;2023-04-07T04:53:44;99931.34;;;7.75;49.60
63739;BME280;68816;45.558;10.070;2023-04-07T04:56:10;99929.69;;;7.74;50.39
63739;BME280;68816;45.558;10.070;2023-04-07T04:58:36;99924.72;;;7.90;50.02
63739;BME280;68816;45.558;10.070;2023-04-07T05:01:04;99915.97;;;7.93;49.71
63739;BME280;68816;45.558;10.070;2023-04-07T05:03:30;99923.19;;;7.94;49.59
63739;BME280;68816;45.558;10.070;2023-04-07T05:05:55;99913.69;;;7.90;49.61
63739;BME280;68816;45.558;10.070;2023-04-07T05:08:21;99914.38;;;7.85;50.33
63739;BME280;68816;45.558;10.070;2023-04-07T05:10:46;99909.75;;;7.79;49.37
63739;BME280;68816;45.558;10.070;2023-04-07T05:13:12;99910.44;;;7.99;48.80
63739;BME280;68816;45.558;10.070;2023-04-07T05:15:39;99901.16;;;7.94;48.33
63739;BME280;68816;45.558;10.070;2023-04-07T05:18:05;99908.41;;;7.88;48.27
63739;BME280;68816;45.558;10.070;2023-04-07T05:20:30;99914.75;;;7.89;47.95
63739;BME280;68816;45.558;10.070;2023-04-07T05:22:56;99911.78;;;7.90;47.67
63739;BME280;68816;45.558;10.070;2023-04-07T05:25:21;99922.94;;;8.02;48.32
63739;BME280;68816;45.558;10.070;2023-04-07T05:27:47;99911.81;;;8.15;46.81
63739;BME280;68816;45.558;10.070;2023-04-07T05:30:12;99916.59;;;8.33;47.21
63739;BME280;68816;45.558;10.070;2023-04-07T05:32:38;99919.72;;;8.36;46.13
63739;BME280;68816;45.558;10.070;2023-04-07T05:35:04;99926.03;;;8.43;46.36
63739;BME280;68816;45.558;10.070;2023-04-07T05:37:29;99920.22;;;8.51;45.64
63739;BME280;68816;45.558;10.070;2023-04-07T05:39:55;99920.94;;;8.65;46.00
63739;BME280;68816;45.558;10.070;2023-04-07T05:42:20;99933.75;;;8.78;45.73
63739;BME280;68816;45.558;10.070;2023-04-07T05:44:46;99921.03;;;8.77;45.73
63739;BME280;68816;45.558;10.070;2023-04-07T05:47:11;99927.09;;;8.85;45.03
63739;BME280;68816;45.558;10.070;2023-04-07T05:49:37;99925.34;;;8.91;44.76
63739;BME280;68816;45.558;10.070;2023-04-07T05:52:10;99917.75;;;9.04;44.80
63739;BME280;68816;45.558;10.070;2023-04-07T05:54:35;99921.66;;;9.15;44.45
63739;BME280;68816;45.558;10.070;2023-04-07T05:57:01;99920.31;;;9.24;44.20
63739;BME280;68816;45.558;10.070;2023-04-07T05:59:26;99920.38;;;9.36;44.63
63739;BME280;68816;45.558;10.070;2023-04-07T06:01:52;99927.81;;;9.35;44.95
63739;BME280;68816;45.558;10.070;2023-04-07T06:04:17;99933.16;;;9.48;43.46
63739;BME280;68816;45.558;10.070;2023-04-07T06:06:42;99922.97;;;9.49;43.96
63739;BME280;68816;45.558;10.070;2023-04-07T06:09:08;99918.31;;;9.61;44.01
63739;BME280;68816;45.558;10.070;2023-04-07T06:11:33;99914.31;;;9.75;42.83
63739;BME280;68816;45.558;10.070;2023-04-07T06:13:59;99908.91;;;9.80;43.28
63739;BME280;68816;45.558;10.070;2023-04-07T06:16:24;99908.88;;;9.99;43.43
63739;BME280;68816;45.558;10.070;2023-04-07T06:18:50;99910.31;;;10.01;41.58
63739;BME280;68816;45.558;10.070;2023-04-07T06:21:16;99916.13;;;10.11;42.14
63739;BME280;68816;45.558;10.070;2023-04-07T06:23:41;99911.13;;;10.32;39.17
63739;BME280;68816;45.558;10.070;2023-04-07T06:26:10;99916.66;;;10.32;39.18
63739;BME280;68816;45.558;10.070;2023-04-07T06:28:36;99918.59;;;10.43;40.42
63739;BME280;68816;45.558;10.070;2023-04-07T06:31:02;99926.44;;;10.57;39.34
63739;BME280;68816;45.558;10.070;2023-04-07T06:33:27;99931.47;;;10.60;39.19
63739;BME280;68816;45.558;10.070;2023-04-07T06:35:53;99930.03;;;10.58;39.02
63739;BME280;68816;45.558;10.070;2023-04-07T06:38:18;99935.19;;;10.43;39.24
63739;BME280;68816;45.558;10.070;2023-04-07T06:40:44;99925.25;;;10.53;39.01
63739;BME280;68816;45.558;10.070;2023-04-07T06:43:09;99922.72;;;10.52;39.31
63739;BME280;68816;45.558;10.070;2023-04-07T06:45:35;99926.53;;;10.51;39.56
63739;BME280;68816;45.558;10.070;2023-04-07T06:48:00;99928.59;;;10.55;39.91
63739;BME280;68816;45.558;10.070;2023-04-07T06:50:26;99933.53;;;10.65;39.87
63739;BME280;68816;45.558;10.070;2023-04-07T06:52:51;99932.44;;;10.66;40.73
63739;BME280;68816;45.558;10.070;2023-04-07T06:55:16;99935.47;;;10.88;40.60
63739;BME280;68816;45.558;10.070;2023-04-07T06:57:42;99923.78;;;10.97;40.22
63739;BME280;68816;45.558;10.070;2023-04-07T07:00:08;99922.72;;;10.98;40.28
63739;BME280;68816;45.558;10.070;2023-04-07T07:02:33;99935.69;;;11.09;41.03
63739;BME280;68816;45.558;10.070;2023-04-07T07:05:00;99935.56;;;11.04;39.92
63739;BME280;68816;45.558;10.070;2023-04-07T07:07:25;99929.31;;;10.97;39.73
63739;BME280;68816;45.558;10.070;2023-04-07T07:09:51;99929.66;;;11.12;40.54
63739;BME280;68816;45.558;10.070;2023-04-07T07:12:17;99933.50;;;11.23;39.32
63739;BME280;68816;45.558;10.070;2023-04-07T07:14:42;99935.66;;;11.33;39.27
63739;BME280;68816;45.558;10.070;2023-04-07T07:17:08;99936.97;;;11.30;38.83
63739;BME280;68816;45.558;10.070;2023-04-07T07:19:33;99934.44;;;11.40;39.16
63739;BME280;68816;45.558;10.070;2023-04-07T07:22:00;99931.22;;;11.60;39.50
63739;BME280;68816;45.558;10.070;2023-04-07T07:24:25;99931.94;;;11.67;37.29
63739;BME280;68816;45.558;10.070;2023-04-07T07:26:53;99933.44;;;11.58;37.86
63739;BME280;68816;45.558;10.070;2023-04-07T07:29:19;99928.81;;;11.75;38.75
63739;BME280;68816;45.558;10.070;2023-04-07T07:31:44;99924.50;;;11.96;37.20
63739;BME280;68816;45.558;10.070;2023-04-07T07:34:10;99923.19;;;11.99;36.16
63739;BME280;68816;45.558;10.070;2023-04-07T07:36:35;99927.25;;;12.24;36.39
63739;BME280;68816;45.558;10.070;2023-04-07T07:39:01;99919.69;;;12.37;36.17
63739;BME280;68816;45.558;10.070;2023-04-07T07:41:26;99921.91;;;12.51;35.95
63739;BME280;68816;45.558;10.070;2023-04-07T07:43:52;99917.53;;;12.55;36.96
63739;BME280;68816;45.558;10.070;2023-04-07T07:46:17;99919.97;;;12.68;35.16
63739;BME280;68816;45.558;10.070;2023-04-07T07:48:42;99926.59;;;12.51;34.08
63739;BME280;68816;45.558;10.070;2023-04-07T07:51:08;99928.09;;;12.25;34.65
63739;BME280;68816;45.558;10.070;2023-04-07T07:53:33;99934.72;;;12.24;34.82
63739;BME280;68816;45.558;10.070;2023-04-07T07:55:59;99937.19;;;12.37;34.53
63739;BME280;68816;45.558;10.070;2023-04-07T07:58:25;99928.53;;;12.50;34.57
63739;BME280;68816;45.558;10.070;2023-04-07T08:00:50;99927.19;;;12.69;34.09
63739;BME280;68816;45.558;10.070;2023-04-07T08:03:16;99926.59;;;12.67;33.87
63739;BME280;68816;45.558;10.070;2023-04-07T08:05:41;99931.69;;;12.75;33.42
63739;BME280;68816;45.558;10.070;2023-04-07T08:08:08;99930.13;;;12.80;32.90
63739;BME280;68816;45.558;10.070;2023-04-07T08:10:34;99928.09;;;12.92;32.66
63739;BME280;68816;45.558;10.070;2023-04-07T08:13:00;99926.06;;;13.04;32.73
63739;BME280;68816;45.558;10.070;2023-04-07T08:15:25;99924.63;;;13.01;32.42
63739;BME280;68816;45.558;10.070;2023-04-07T08:17:51;99923.28;;;13.04;32.11
63739;BME280;68816;45.558;10.070;2023-04-07T08:20:16;99926.91;;;13.21;31.71
63739;BME280;68816;45.558;10.070;2023-04-07T08:22:42;99929.16;;;13.46;31.50
63739;BME280;68816;45.558;10.070;2023-04-07T08:25:07;99934.47;;;13.47;33.13
63739;BME280;68816;45.558;10.070;2023-04-07T08:27:33;99929.13;;;13.63;32.61
63739;BME280;68816;45.558;10.070;2023-04-07T08:30:03;99929.13;;;13.63;31.29
63739;BME280;68816;45.558;10.070;2023-04-07T08:32:38;99929.47;;;13.71;31.33
63739;BME280;68816;45.558;10.070;2023-04-07T08:35:05;99925.53;;;13.89;31.88
63739;BME280;68816;45.558;10.070;2023-04-07T08:37:31;99930.03;;;13.95;32.90
63739;BME280;68816;45.558;10.070;2023-04-07T08:39:57;99928.41;;;13.99;31.46
63739;BME280;68816;45.558;10.070;2023-04-07T08:42:26;99933.31;;;13.92;31.16
63739;BME280;68816;45.558;10.070;2023-04-07T08:44:54;99925.97;;;14.03;30.81
63739;BME280;68816;45.558;10.070;2023-04-07T08:47:21;99920.75;;;14.11;30.86
63739;BME280;68816;45.558;10.070;2023-04-07T08:49:51;99929.69;;;14.13;31.73
63739;BME280;68816;45.558;10.070;2023-04-07T08:52:17;99925.38;;;14.01;32.46
63739;BME280;68816;45.558;10.070;2023-04-07T08:54:47;99920.41;;;13.81;32.77
63739;BME280;68816;45.558;10.070;2023-04-07T08:57:13;99914.84;;;14.03;32.96
63739;BME280;68816;45.558;10.070;2023-04-07T08:59:41;99919.59;;;14.07;32.09
63739;BME280;68816;45.558;10.070;2023-04-07T09:02:09;99916.78;;;14.02;31.79
63739;BME280;68816;45.558;10.070;2023-04-07T09:04:35;99914.56;;;14.04;31.35
63739;BME280;68816;45.558;10.070;2023-04-07T09:07:01;99909.59;;;14.06;30.29
63739;BME280;68816;45.558;10.070;2023-04-07T09:09:27;99914.81;;;14.29;31.08
63739;BME280;68816;45.558;10.070;2023-04-07T09:11:53;99908.81;;;14.37;30.54
63739;BME280;68816;45.558;10.070;2023-04-07T09:14:20;99917.16;;;14.37;30.06
63739;BME280;68816;45.558;10.070;2023-04-07T09:16:46;99908.81;;;14.37;30.07
63739;BME280;68816;45.558;10.070;2023-04-07T09:19:12;99915.34;;;14.26;31.11
63739;BME280;68816;45.558;10.070;2023-04-07T09:21:51;99909.03;;;14.36;30.43
63739;BME280;68816;45.558;10.070;2023-04-07T09:24:22;99900.81;;;14.19;30.98
63739;BME280;68816;45.558;10.070;2023-04-07T09:26:47;99908.16;;;14.04;30.28
63739;BME280;68816;45.558;10.070;2023-04-07T09:29:18;99907.09;;;14.10;29.42
63739;BME280;68816;45.558;10.070;2023-04-07T09:31:48;99903.25;;;14.37;29.79
63739;BME280;68816;45.558;10.070;2023-04-07T09:34:35;99898.19;;;14.61;30.03
63739;BME280;68816;45.558;10.070;2023-04-07T09:37:02;99899.53;;;14.59;29.83
63739;BME280;68816;45.558;10.070;2023-04-07T09:39:29;99891.06;;;14.80;29.51
63739;BME280;68816;45.558;10.070;2023-04-07T09:41:54;99898.31;;;14.82;29.18
63739;BME280;68816;45.558;10.070;2023-04-07T09:44:21;99904.75;;;14.87;28.90
63739;BME280;68816;45.558;10.070;2023-04-07T09:46:56;99894.63;;;15.13;28.33
63739;BME280;68816;45.558;10.070;2023-04-07T09:49:23;99887.75;;;15.26;28.53
63739;BME280;68816;45.558;10.070;2023-04-07T09:52:02;99890.72;;;15.66;29.60
63739;BME280;68816;45.558;10.070;2023-04-07T09:54:39;99887.97;;;15.81;28.55
63739;BME280;68816;45.558;10.070;2023-04-07T09:57:07;99883.75;;;15.64;28.11
63739;BME280;68816;45.558;10.070;2023-04-07T09:59:35;99879.63;;;15.81;27.40
63739;BME280;68816;45.558;10.070;2023-04-07T10:02:01;99883.16;;;15.56;27.89
63739;BME280;68816;45.558;10.070;2023-04-07T10:04:27;99879.69;;;15.39;27.47
63739;BME280;68816;45.558;10.070;2023-04-07T10:06:54;99877.25;;;15.48;27.99
63739;BME280;68816;45.558;10.070;2023-04-07T10:09:23;99876.63;;;15.31;27.99
63739;BME280;68816;45.558;10.070;2023-04-07T10:11:51;99871.81;;;15.26;28.62
63739;BME280;68816;45.558;10.070;2023-04-07T10:14:17;99870.94;;;15.15;27.32
63739;BME280;68816;45.558;10.070;2023-04-07T10:16:45;99870.50;;;14.87;28.54
63739;BME280;68816;45.558;10.070;2023-04-07T10:19:12;99881.53;;;14.71;28.34
63739;BME280;68816;45.558;10.070;2023-04-07T10:21:40;99869.75;;;14.59;28.14
63739;BME280;68816;45.558;10.070;2023-04-07T10:26:46;99866.94;;;14.54;28.83
63739;BME280;68816;45.558;10.070;2023-04-07T10:29:15;99865.75;;;14.45;30.79
63739;BME280;68816;45.558;10.070;2023-04-07T10:31:41;99863.94;;;14.34;30.36
63739;BME280;68816;45.558;10.070;2023-04-07T10:34:07;99869.47;;;14.56;29.77
63739;BME280;68816;45.558;10.070;2023-04-07T10:36:32;99863.25;;;14.44;30.28
63739;BME280;68816;45.558;10.070;2023-04-07T10:41:40;99865.53;;;14.52;30.06
63739;BME280;68816;45.558;10.070;2023-04-07T10:44:07;99867.53;;;14.29;30.32
63739;BME280;68816;45.558;10.070;2023-04-07T10:49:12;99862.59;;;14.36;29.86
63739;BME280;68816;45.558;10.070;2023-04-07T10:51:38;99851.13;;;14.60;29.74
63739;BME280;68816;45.558;10.070;2023-04-07T10:54:22;99860.84;;;14.57;31.33
63739;BME280;68816;45.558;10.070;2023-04-07T10:59:32;99859.03;;;14.41;29.84
63739;BME280;68816;45.558;10.070;2023-04-07T11:04:43;99843.78;;;14.44;30.83
63739;BME280;68816;45.558;10.070;2023-04-07T11:07:10;99839.94;;;14.50;31.82
63739;BME280;68816;45.558;10.070;2023-04-07T11:09:36;99846.00;;;14.47;31.01
63739;BME280;68816;45.558;10.070;2023-04-07T11:12:02;99834.44;;;14.33;31.66
63739;BME280;68816;45.558;10.070;2023-04-07T11:14:30;99846.09;;;14.25;31.39
63739;BME280;68816;45.558;10.070;2023-04-07T11:16:57;99836.63;;;14.26;31.36
63739;BME280;68816;45.558;10.070;2023-04-07T11:19:23;99834.00;;;14.09;31.68
63739;BME280;68816;45.558;10.070;2023-04-07T11:21:48;99833.19;;;14.14;31.26
63739;BME280;68816;45.558;10.070;2023-04-07T11:24:34;99840.47;;;14.20;30.90
63739;BME280;68816;45.558;10.070;2023-04-07T11:27:02;99836.53;;;14.16;30.71
63739;BME280;68816;45.558;10.070;2023-04-07T11:29:31;99836.84;;;14.19;31.79
63739;BME280;68816;45.558;10.070;2023-04-07T11:31:58;99844.97;;;14.26;30.61
63739;BME280;68816;45.558;10.070;2023-04-07T11:34:31;99837.16;;;14.23;31.46
63739;BME280;68816;45.558;10.070;2023-04-07T11:36:58;99834.69;;;14.26;31.76
63739;BME280;68816;45.558;10.070;2023-04-07T11:39:25;99832.91;;;14.42;31.15
63739;BME280;68816;45.558;10.070;2023-04-07T11:41:57;99827.13;;;14.49;31.36
63739;BME280;68816;45.558;10.070;2023-04-07T11:44:23;99816.88;;;14.59;31.33
63739;BME280;68816;45.558;10.070;2023-04-07T11:46:58;99823.31;;;14.65;31.63
63739;BME280;68816;45.558;10.070;2023-04-07T11:49:25;99823.13;;;14.76;31.73
63739;BME280;68816;45.558;10.070;2023-04-07T11:52:03;99809.69;;;14.68;31.21
63739;BME280;68816;45.558;10.070;2023-04-07T11:54:45;99818.34;;;14.67;31.38
63739;BME280;68816;45.558;10.070;2023-04-07T11:57:11;99807.88;;;14.84;31.76
63739;BME280;68816;45.558;10.070;2023-04-07T11:59:38;99811.34;;;15.16;31.43
63739;BME280;68816;45.558;10.070;2023-04-07T12:02:04;99805.31;;;15.45;30.43
63739;BME280;68816;45.558;10.070;2023-04-07T12:04:29;99803.75;;;15.64;31.43
63739;BME280;68816;45.558;10.070;2023-04-07T12:07:06;99799.59;;;15.92;30.26
63739;BME280;68816;45.558;10.070;2023-04-07T12:09:33;99799.63;;;16.07;29.82
63739;BME280;68816;45.558;10.070;2023-04-07T12:12:01;99806.03;;;16.33;28.94
63739;BME280;68816;45.558;10.070;2023-04-07T12:14:27;99799.34;;;16.19;29.39
63739;BME280;68816;45.558;10.070;2023-04-07T12:16:54;99799.31;;;16.49;29.01
63739;BME280;68816;45.558;10.070;2023-04-07T12:19:25;99791.09;;;17.08;28.17
63739;BME280;68816;45.558;10.070;2023-04-07T12:21:51;99787.06;;;17.40;27.68
63739;BME280;68816;45.558;10.070;2023-04-07T12:24:16;99777.69;;;18.09;27.74
63739;BME280;68816;45.558;10.070;2023-04-07T12:26:42;99782.84;;;18.54;26.72
63739;BME280;68816;45.558;10.070;2023-04-07T12:29:07;99772.31;;;18.75;25.63
63739;BME280;68816;45.558;10.070;2023-04-07T12:31:33;99775.31;;;19.07;25.60
63739;BME280;68816;45.558;10.070;2023-04-07T12:33:59;99766.41;;;19.00;24.99
63739;BME280;68816;45.558;10.070;2023-04-07T12:36:25;99770.06;;;19.01;25.49
63739;BME280;68816;45.558;10.070;2023-04-07T12:38:55;99758.06;;;18.95;25.13
63739;BME280;68816;45.558;10.070;2023-04-07T12:41:20;99761.88;;;18.57;24.80
63739;BME280;68816;45.558;10.070;2023-04-07T12:43:46;99757.75;;;19.20;25.74
63739;BME280;68816;45.558;10.070;2023-04-07T12:46:12;99763.88;;;19.04;25.12
63739;BME280;68816;45.558;10.070;2023-04-07T12:48:37;99758.38;;;19.60;24.17
63739;BME280;68816;45.558;10.070;2023-04-07T12:51:04;99759.44;;;19.83;23.54
63739;BME280;68816;45.558;10.070;2023-04-07T12:53:29;99748.50;;;19.81;23.16
63739;BME280;68816;45.558;10.070;2023-04-07T12:55:55;99750.09;;;19.68;23.89
63739;BME280;68816;45.558;10.070;2023-04-07T12:58:21;99745.00;;;19.33;24.28
63739;BME280;68816;45.558;10.070;2023-04-07T13:00:47;99743.47;;;18.98;25.20
63739;BME280;68816;45.558;10.070;2023-04-07T13:03:12;99748.81;;;18.95;25.56
63739;BME280;68816;45.558;10.070;2023-04-07T13:05:38;99747.81;;;18.62;24.92
63739;BME280;68816;45.558;10.070;2023-04-07T13:08:04;99746.84;;;18.42;24.47
63739;BME280;68816;45.558;10.070;2023-04-07T13:10:30;99740.19;;;18.38;25.17
63739;BME280;68816;45.558;10.070;2023-04-07T13:12:55;99747.97;;;18.70;23.57